EDVK METAR and TAF | Updated Today

EDVK METAR

Kassel-Calden Airport

Observation time: 28 min. ago

EDVK 051950Z AUTO 33003KT 300V050 6000 // OVC004/// 02/02 Q1037

Need help? Read our tutorial on how to read METARs or read the parsed version below.

Kassel-Calden Airport (EDVK) METAR

  • Weather conditions on Sun, 05 Feb 2023 19:50:00 +0000 (28 min. ago):
  • Present conditions: Dry
  • Clouds: Overcast sky at 122 meters
  • Visibility: 6000 meters
  • Wind: 330 degrees at 3 knots
  • Temperature: 2 celsius
  • Dew point: 2 celsius
  • Pressure: 1037 millibars
  • Remarks: None


Useful to know...

EDVK TAF

Kassel-Calden Airport

TAF AMD EDVK 051803Z 0518/0603 01004KT 6000 SCT003 BKN010 TEMPO 0518/0603 2000 -DZ BR BKN003 PROB30 TEMPO 0518/0603 0700 FG
Observation time: 2:15 hr. ago
Need help? Read our tutorial on how to read TAFs or read the parsed version below.

Parsed version of TAF for Kassel-Calden Airport (EDVK)

  • From 05 February at 18:00 UTC, to day 06 of the month at 03:00 UTC
  • Clouds: Scattered at 91 meters; broken sky at 305 meters
  • Visibility: 6000 meters
  • Wind: 10 degrees at 4
  • Expected to arise temporarily, from 05 February at 18:00 UTC, to day 06 of the month at 03:00 UTC
  • Clouds: Broken sky at 91 meters
  • Visibility: 2000 meters
  • Other: Light drizzle; mist
  • Expected to arise temporarily, from 05 February at 18:00 UTC, to day 06 of the month at 03:00 UTC
    Probability of 30%
  • Visibility: 700 meters
  • Other: Fog